Weather at Bakers Field [CLOSED]

Public forecast

Using degrees Fahrenheit for public forecast. Weather courtesy of forecast.io.

Closest aviation weather report (METAR) to Bakers Field

Closest report is Iowa County Airport, 16.5 nm (30.6 km) WNW. Retrieved 2021/06/13 11:35 UTC (0 seconds ago):

KMRJ 131135Z AUTO 34004KT 10SM CLR 16/10 A3005 RMK AO2

Closest aviation forecast (TAF) to Bakers Field

Closest forecast is Dane County Regional Truax Field, 30.1 nm (55.7 km) NE. Retrieved 2021/06/13 06:22 UTC (5 hours ago):

TAF KMSN 130520Z 1306/1406 31003KT P6SM SKC FM131400 33006KT P6SM SKC FM132100 30005KT P6SM FEW250 FM140100 23004KT P6SM FEW250